<?xml version="1.0" encoding="UTF-8" standalone="no" ?>
<gpx xmlns="http://www.topografix.com/GPX/1/1" xmlns:xsi="http://www.w3.org/2001/XMLSchema-instance" xsi:schemaLocation="http://www.topografix.com/GPX/1/1 http://www.topografix.com/GPX/1/1/gpx.xsd" version="1.1" creator="VisuGPX - https://www.visugpx.com">
  <metadata>
    <name>Thézac</name>
  </metadata>
  <trk>
    <name><![CDATA[Tracé actuel: 25 DEC 2020 09:09]]></name>
    <trkseg>
      <trkpt lat="44.4295" lon="1.01431">
        <ele>124.63</ele>
        <time>2020-12-25T08:09:32Z</time>
      </trkpt>
      <trkpt lat="44.42952" lon="1.01368">
        <ele>191.44</ele>
        <time>2020-12-25T08:10:02Z</time>
      </trkpt>
      <trkpt lat="44.42987" lon="1.01334">
        <ele>214.51</ele>
        <time>2020-12-25T08:10:32Z</time>
      </trkpt>
      <trkpt lat="44.43014" lon="1.0128">
        <ele>226.05</ele>
        <time>2020-12-25T08:11:02Z</time>
      </trkpt>
      <trkpt lat="44.43021" lon="1.0121">
        <ele>228.93</ele>
        <time>2020-12-25T08:11:32Z</time>
      </trkpt>
      <trkpt lat="44.43025" lon="1.01143">
        <ele>227.01</ele>
        <time>2020-12-25T08:12:02Z</time>
      </trkpt>
      <trkpt lat="44.43055" lon="1.01091">
        <ele>225.57</ele>
        <time>2020-12-25T08:12:32Z</time>
      </trkpt>
      <trkpt lat="44.43096" lon="1.01061">
        <ele>222.2</ele>
        <time>2020-12-25T08:13:02Z</time>
      </trkpt>
      <trkpt lat="44.43129" lon="1.01007">
        <ele>220.28</ele>
        <time>2020-12-25T08:13:32Z</time>
      </trkpt>
      <trkpt lat="44.43151" lon="1.00943">
        <ele>220.28</ele>
        <time>2020-12-25T08:14:02Z</time>
      </trkpt>
      <trkpt lat="44.43187" lon="1.00893">
        <ele>218.84</ele>
        <time>2020-12-25T08:14:32Z</time>
      </trkpt>
      <trkpt lat="44.43217" lon="1.00837">
        <ele>216.43</ele>
        <time>2020-12-25T08:15:02Z</time>
      </trkpt>
      <trkpt lat="44.43206" lon="1.00813">
        <ele>214.51</ele>
        <time>2020-12-25T08:15:32Z</time>
      </trkpt>
      <trkpt lat="44.43166" lon="1.00832">
        <ele>214.03</ele>
        <time>2020-12-25T08:16:02Z</time>
      </trkpt>
      <trkpt lat="44.43119" lon="1.00843">
        <ele>211.15</ele>
        <time>2020-12-25T08:16:32Z</time>
      </trkpt>
      <trkpt lat="44.43077" lon="1.00882">
        <ele>210.67</ele>
        <time>2020-12-25T08:17:02Z</time>
      </trkpt>
      <trkpt lat="44.4304" lon="1.00917">
        <ele>209.7</ele>
        <time>2020-12-25T08:17:32Z</time>
      </trkpt>
      <trkpt lat="44.43007" lon="1.00945">
        <ele>207.78</ele>
        <time>2020-12-25T08:18:02Z</time>
      </trkpt>
      <trkpt lat="44.4296" lon="1.00987">
        <ele>206.82</ele>
        <time>2020-12-25T08:18:32Z</time>
      </trkpt>
      <trkpt lat="44.42911" lon="1.00979">
        <ele>206.82</ele>
        <time>2020-12-25T08:19:02Z</time>
      </trkpt>
      <trkpt lat="44.42867" lon="1.00953">
        <ele>208.74</ele>
        <time>2020-12-25T08:19:32Z</time>
      </trkpt>
      <trkpt lat="44.42823" lon="1.00968">
        <ele>210.67</ele>
        <time>2020-12-25T08:20:02Z</time>
      </trkpt>
      <trkpt lat="44.42789" lon="1.01004">
        <ele>210.19</ele>
        <time>2020-12-25T08:20:32Z</time>
      </trkpt>
      <trkpt lat="44.42744" lon="1.01044">
        <ele>209.22</ele>
        <time>2020-12-25T08:21:02Z</time>
      </trkpt>
      <trkpt lat="44.42701" lon="1.01022">
        <ele>205.86</ele>
        <time>2020-12-25T08:21:32Z</time>
      </trkpt>
      <trkpt lat="44.42654" lon="1.01029">
        <ele>201.53</ele>
        <time>2020-12-25T08:22:02Z</time>
      </trkpt>
      <trkpt lat="44.42606" lon="1.01059">
        <ele>198.65</ele>
        <time>2020-12-25T08:22:32Z</time>
      </trkpt>
      <trkpt lat="44.42558" lon="1.01063">
        <ele>198.17</ele>
        <time>2020-12-25T08:23:02Z</time>
      </trkpt>
      <trkpt lat="44.42513" lon="1.01072">
        <ele>198.17</ele>
        <time>2020-12-25T08:23:32Z</time>
      </trkpt>
      <trkpt lat="44.42471" lon="1.01106">
        <ele>196.73</ele>
        <time>2020-12-25T08:24:02Z</time>
      </trkpt>
      <trkpt lat="44.42436" lon="1.01137">
        <ele>194.8</ele>
        <time>2020-12-25T08:24:32Z</time>
      </trkpt>
      <trkpt lat="44.42403" lon="1.01187">
        <ele>189.52</ele>
        <time>2020-12-25T08:25:02Z</time>
      </trkpt>
      <trkpt lat="44.4237" lon="1.01216">
        <ele>188.08</ele>
        <time>2020-12-25T08:25:32Z</time>
      </trkpt>
      <trkpt lat="44.42334" lon="1.0126">
        <ele>191.92</ele>
        <time>2020-12-25T08:26:02Z</time>
      </trkpt>
      <trkpt lat="44.42303" lon="1.01256">
        <ele>196.25</ele>
        <time>2020-12-25T08:26:32Z</time>
      </trkpt>
      <trkpt lat="44.42271" lon="1.01231">
        <ele>202.01</ele>
        <time>2020-12-25T08:27:02Z</time>
      </trkpt>
      <trkpt lat="44.42256" lon="1.01265">
        <ele>205.38</ele>
        <time>2020-12-25T08:27:32Z</time>
      </trkpt>
      <trkpt lat="44.42268" lon="1.01321">
        <ele>203.46</ele>
        <time>2020-12-25T08:28:02Z</time>
      </trkpt>
      <trkpt lat="44.42281" lon="1.01386">
        <ele>200.09</ele>
        <time>2020-12-25T08:28:32Z</time>
      </trkpt>
      <trkpt lat="44.42291" lon="1.01449">
        <ele>198.17</ele>
        <time>2020-12-25T08:29:02Z</time>
      </trkpt>
      <trkpt lat="44.42294" lon="1.01511">
        <ele>196.73</ele>
        <time>2020-12-25T08:29:32Z</time>
      </trkpt>
      <trkpt lat="44.42264" lon="1.01554">
        <ele>199.13</ele>
        <time>2020-12-25T08:30:02Z</time>
      </trkpt>
      <trkpt lat="44.42227" lon="1.01582">
        <ele>201.53</ele>
        <time>2020-12-25T08:30:32Z</time>
      </trkpt>
      <trkpt lat="44.42186" lon="1.01595">
        <ele>205.38</ele>
        <time>2020-12-25T08:31:02Z</time>
      </trkpt>
      <trkpt lat="44.42141" lon="1.01598">
        <ele>208.26</ele>
        <time>2020-12-25T08:31:32Z</time>
      </trkpt>
      <trkpt lat="44.42096" lon="1.0159">
        <ele>209.7</ele>
        <time>2020-12-25T08:32:02Z</time>
      </trkpt>
      <trkpt lat="44.4206" lon="1.01592">
        <ele>210.19</ele>
        <time>2020-12-25T08:32:32Z</time>
      </trkpt>
      <trkpt lat="44.42063" lon="1.01531">
        <ele>214.03</ele>
        <time>2020-12-25T08:33:02Z</time>
      </trkpt>
      <trkpt lat="44.42079" lon="1.0147">
        <ele>217.4</ele>
        <time>2020-12-25T08:33:32Z</time>
      </trkpt>
      <trkpt lat="44.42065" lon="1.01425">
        <ele>218.36</ele>
        <time>2020-12-25T08:34:02Z</time>
      </trkpt>
      <trkpt lat="44.42023" lon="1.0139">
        <ele>217.88</ele>
        <time>2020-12-25T08:34:32Z</time>
      </trkpt>
      <trkpt lat="44.4198" lon="1.01359">
        <ele>216.43</ele>
        <time>2020-12-25T08:35:02Z</time>
      </trkpt>
      <trkpt lat="44.41938" lon="1.01326">
        <ele>215.95</ele>
        <time>2020-12-25T08:35:32Z</time>
      </trkpt>
      <trkpt lat="44.41893" lon="1.013">
        <ele>215.95</ele>
        <time>2020-12-25T08:36:02Z</time>
      </trkpt>
      <trkpt lat="44.4185" lon="1.01268">
        <ele>214.03</ele>
        <time>2020-12-25T08:36:32Z</time>
      </trkpt>
      <trkpt lat="44.41805" lon="1.01253">
        <ele>213.55</ele>
        <time>2020-12-25T08:37:02Z</time>
      </trkpt>
      <trkpt lat="44.41756" lon="1.01241">
        <ele>210.19</ele>
        <time>2020-12-25T08:37:32Z</time>
      </trkpt>
      <trkpt lat="44.41708" lon="1.01242">
        <ele>206.34</ele>
        <time>2020-12-25T08:38:02Z</time>
      </trkpt>
      <trkpt lat="44.41669" lon="1.01226">
        <ele>203.94</ele>
        <time>2020-12-25T08:38:32Z</time>
      </trkpt>
      <trkpt lat="44.41621" lon="1.01208">
        <ele>201.05</ele>
        <time>2020-12-25T08:39:02Z</time>
      </trkpt>
      <trkpt lat="44.41569" lon="1.01193">
        <ele>195.28</ele>
        <time>2020-12-25T08:39:32Z</time>
      </trkpt>
      <trkpt lat="44.41523" lon="1.0121">
        <ele>190.48</ele>
        <time>2020-12-25T08:40:02Z</time>
      </trkpt>
      <trkpt lat="44.41501" lon="1.01256">
        <ele>189.04</ele>
        <time>2020-12-25T08:40:32Z</time>
      </trkpt>
      <trkpt lat="44.41469" lon="1.01298">
        <ele>184.71</ele>
        <time>2020-12-25T08:41:02Z</time>
      </trkpt>
      <trkpt lat="44.41434" lon="1.01333">
        <ele>179.42</ele>
        <time>2020-12-25T08:41:32Z</time>
      </trkpt>
      <trkpt lat="44.41395" lon="1.01359">
        <ele>174.14</ele>
        <time>2020-12-25T08:42:02Z</time>
      </trkpt>
      <trkpt lat="44.41354" lon="1.01362">
        <ele>169.33</ele>
        <time>2020-12-25T08:42:32Z</time>
      </trkpt>
      <trkpt lat="44.41315" lon="1.01349">
        <ele>164.04</ele>
        <time>2020-12-25T08:43:02Z</time>
      </trkpt>
      <trkpt lat="44.4128" lon="1.01339">
        <ele>157.79</ele>
        <time>2020-12-25T08:43:32Z</time>
      </trkpt>
      <trkpt lat="44.41238" lon="1.01354">
        <ele>151.06</ele>
        <time>2020-12-25T08:44:02Z</time>
      </trkpt>
      <trkpt lat="44.41229" lon="1.01416">
        <ele>150.58</ele>
        <time>2020-12-25T08:44:32Z</time>
      </trkpt>
      <trkpt lat="44.41222" lon="1.01478">
        <ele>151.54</ele>
        <time>2020-12-25T08:45:02Z</time>
      </trkpt>
      <trkpt lat="44.41224" lon="1.01544">
        <ele>152.03</ele>
        <time>2020-12-25T08:45:32Z</time>
      </trkpt>
      <trkpt lat="44.41241" lon="1.01603">
        <ele>152.03</ele>
        <time>2020-12-25T08:46:02Z</time>
      </trkpt>
      <trkpt lat="44.41276" lon="1.01637">
        <ele>150.58</ele>
        <time>2020-12-25T08:46:32Z</time>
      </trkpt>
      <trkpt lat="44.41289" lon="1.0168">
        <ele>151.54</ele>
        <time>2020-12-25T08:47:02Z</time>
      </trkpt>
      <trkpt lat="44.41315" lon="1.01717">
        <ele>154.43</ele>
        <time>2020-12-25T08:47:32Z</time>
      </trkpt>
      <trkpt lat="44.41342" lon="1.01742">
        <ele>158.27</ele>
        <time>2020-12-25T08:48:02Z</time>
      </trkpt>
      <trkpt lat="44.4134" lon="1.01782">
        <ele>163.56</ele>
        <time>2020-12-25T08:48:32Z</time>
      </trkpt>
      <trkpt lat="44.41334" lon="1.01808">
        <ele>166.45</ele>
        <time>2020-12-25T08:49:02Z</time>
      </trkpt>
      <trkpt lat="44.41333" lon="1.0181">
        <ele>165</ele>
        <time>2020-12-25T08:49:32Z</time>
      </trkpt>
      <trkpt lat="44.41332" lon="1.01808">
        <ele>165</ele>
        <time>2020-12-25T08:50:02Z</time>
      </trkpt>
      <trkpt lat="44.41332" lon="1.0181">
        <ele>165</ele>
        <time>2020-12-25T08:50:32Z</time>
      </trkpt>
      <trkpt lat="44.4133" lon="1.01812">
        <ele>166.45</ele>
        <time>2020-12-25T08:51:02Z</time>
      </trkpt>
      <trkpt lat="44.41331" lon="1.01811">
        <ele>166.45</ele>
        <time>2020-12-25T08:51:32Z</time>
      </trkpt>
      <trkpt lat="44.41332" lon="1.01811">
        <ele>166.45</ele>
        <time>2020-12-25T08:52:02Z</time>
      </trkpt>
      <trkpt lat="44.41333" lon="1.01824">
        <ele>168.37</ele>
        <time>2020-12-25T08:52:32Z</time>
      </trkpt>
      <trkpt lat="44.41352" lon="1.01858">
        <ele>170.77</ele>
        <time>2020-12-25T08:53:02Z</time>
      </trkpt>
      <trkpt lat="44.41375" lon="1.01911">
        <ele>169.81</ele>
        <time>2020-12-25T08:53:32Z</time>
      </trkpt>
      <trkpt lat="44.41368" lon="1.01964">
        <ele>165</ele>
        <time>2020-12-25T08:54:02Z</time>
      </trkpt>
      <trkpt lat="44.41353" lon="1.02017">
        <ele>161.64</ele>
        <time>2020-12-25T08:54:32Z</time>
      </trkpt>
      <trkpt lat="44.41335" lon="1.0205">
        <ele>161.64</ele>
        <time>2020-12-25T08:55:02Z</time>
      </trkpt>
      <trkpt lat="44.41294" lon="1.0211">
        <ele>160.2</ele>
        <time>2020-12-25T08:55:32Z</time>
      </trkpt>
      <trkpt lat="44.41262" lon="1.02124">
        <ele>160.2</ele>
        <time>2020-12-25T08:56:02Z</time>
      </trkpt>
      <trkpt lat="44.41233" lon="1.02146">
        <ele>160.2</ele>
        <time>2020-12-25T08:56:32Z</time>
      </trkpt>
      <trkpt lat="44.41215" lon="1.02172">
        <ele>160.2</ele>
        <time>2020-12-25T08:57:02Z</time>
      </trkpt>
      <trkpt lat="44.41207" lon="1.02194">
        <ele>159.72</ele>
        <time>2020-12-25T08:57:32Z</time>
      </trkpt>
      <trkpt lat="44.41187" lon="1.02291">
        <ele>159.24</ele>
        <time>2020-12-25T08:58:02Z</time>
      </trkpt>
      <trkpt lat="44.41185" lon="1.02374">
        <ele>160.2</ele>
        <time>2020-12-25T08:58:32Z</time>
      </trkpt>
      <trkpt lat="44.41204" lon="1.02428">
        <ele>160.2</ele>
        <time>2020-12-25T08:59:02Z</time>
      </trkpt>
      <trkpt lat="44.4122" lon="1.02481">
        <ele>161.16</ele>
        <time>2020-12-25T08:59:32Z</time>
      </trkpt>
      <trkpt lat="44.41234" lon="1.02539">
        <ele>161.64</ele>
        <time>2020-12-25T09:00:02Z</time>
      </trkpt>
      <trkpt lat="44.41223" lon="1.02597">
        <ele>161.64</ele>
        <time>2020-12-25T09:00:32Z</time>
      </trkpt>
      <trkpt lat="44.41197" lon="1.02652">
        <ele>162.6</ele>
        <time>2020-12-25T09:01:02Z</time>
      </trkpt>
      <trkpt lat="44.41187" lon="1.02711">
        <ele>164.04</ele>
        <time>2020-12-25T09:01:32Z</time>
      </trkpt>
      <trkpt lat="44.4122" lon="1.02741">
        <ele>164.52</ele>
        <time>2020-12-25T09:02:02Z</time>
      </trkpt>
      <trkpt lat="44.41258" lon="1.02753">
        <ele>164.52</ele>
        <time>2020-12-25T09:02:32Z</time>
      </trkpt>
      <trkpt lat="44.41285" lon="1.02778">
        <ele>165.96</ele>
        <time>2020-12-25T09:03:01Z</time>
      </trkpt>
      <trkpt lat="44.41321" lon="1.02823">
        <ele>165.48</ele>
        <time>2020-12-25T09:03:32Z</time>
      </trkpt>
      <trkpt lat="44.4133" lon="1.02879">
        <ele>165.48</ele>
        <time>2020-12-25T09:04:02Z</time>
      </trkpt>
      <trkpt lat="44.41321" lon="1.0294">
        <ele>167.41</ele>
        <time>2020-12-25T09:04:32Z</time>
      </trkpt>
      <trkpt lat="44.41295" lon="1.02978">
        <ele>167.89</ele>
        <time>2020-12-25T09:05:02Z</time>
      </trkpt>
      <trkpt lat="44.41275" lon="1.03007">
        <ele>168.85</ele>
        <time>2020-12-25T09:05:32Z</time>
      </trkpt>
      <trkpt lat="44.41234" lon="1.03053">
        <ele>168.85</ele>
        <time>2020-12-25T09:06:02Z</time>
      </trkpt>
      <trkpt lat="44.41206" lon="1.03084">
        <ele>169.33</ele>
        <time>2020-12-25T09:06:32Z</time>
      </trkpt>
      <trkpt lat="44.41169" lon="1.03115">
        <ele>169.33</ele>
        <time>2020-12-25T09:07:02Z</time>
      </trkpt>
      <trkpt lat="44.41137" lon="1.03145">
        <ele>169.33</ele>
        <time>2020-12-25T09:07:32Z</time>
      </trkpt>
      <trkpt lat="44.41149" lon="1.03183">
        <ele>169.81</ele>
        <time>2020-12-25T09:08:02Z</time>
      </trkpt>
      <trkpt lat="44.41185" lon="1.03198">
        <ele>170.29</ele>
        <time>2020-12-25T09:08:32Z</time>
      </trkpt>
      <trkpt lat="44.4122" lon="1.03216">
        <ele>170.77</ele>
        <time>2020-12-25T09:09:02Z</time>
      </trkpt>
      <trkpt lat="44.41244" lon="1.0323">
        <ele>170.77</ele>
        <time>2020-12-25T09:09:32Z</time>
      </trkpt>
      <trkpt lat="44.41275" lon="1.03252">
        <ele>171.73</ele>
        <time>2020-12-25T09:10:02Z</time>
      </trkpt>
      <trkpt lat="44.41301" lon="1.03297">
        <ele>171.73</ele>
        <time>2020-12-25T09:10:32Z</time>
      </trkpt>
      <trkpt lat="44.41293" lon="1.03345">
        <ele>173.17</ele>
        <time>2020-12-25T09:11:02Z</time>
      </trkpt>
      <trkpt lat="44.41287" lon="1.03398">
        <ele>173.17</ele>
        <time>2020-12-25T09:11:32Z</time>
      </trkpt>
      <trkpt lat="44.41306" lon="1.03451">
        <ele>173.17</ele>
        <time>2020-12-25T09:12:02Z</time>
      </trkpt>
      <trkpt lat="44.41343" lon="1.03449">
        <ele>174.14</ele>
        <time>2020-12-25T09:12:32Z</time>
      </trkpt>
      <trkpt lat="44.4137" lon="1.03407">
        <ele>174.62</ele>
        <time>2020-12-25T09:13:02Z</time>
      </trkpt>
      <trkpt lat="44.41401" lon="1.03376">
        <ele>175.58</ele>
        <time>2020-12-25T09:13:32Z</time>
      </trkpt>
      <trkpt lat="44.41443" lon="1.03375">
        <ele>176.54</ele>
        <time>2020-12-25T09:14:02Z</time>
      </trkpt>
      <trkpt lat="44.41482" lon="1.03393">
        <ele>177.02</ele>
        <time>2020-12-25T09:14:32Z</time>
      </trkpt>
      <trkpt lat="44.41512" lon="1.03434">
        <ele>177.98</ele>
        <time>2020-12-25T09:15:02Z</time>
      </trkpt>
      <trkpt lat="44.41551" lon="1.03462">
        <ele>180.38</ele>
        <time>2020-12-25T09:15:32Z</time>
      </trkpt>
      <trkpt lat="44.41565" lon="1.03504">
        <ele>185.67</ele>
        <time>2020-12-25T09:16:02Z</time>
      </trkpt>
      <trkpt lat="44.41597" lon="1.03523">
        <ele>189.04</ele>
        <time>2020-12-25T09:16:32Z</time>
      </trkpt>
      <trkpt lat="44.41633" lon="1.03526">
        <ele>193.84</ele>
        <time>2020-12-25T09:17:02Z</time>
      </trkpt>
      <trkpt lat="44.41666" lon="1.0353">
        <ele>197.69</ele>
        <time>2020-12-25T09:17:32Z</time>
      </trkpt>
      <trkpt lat="44.41697" lon="1.03556">
        <ele>202.49</ele>
        <time>2020-12-25T09:18:02Z</time>
      </trkpt>
      <trkpt lat="44.41739" lon="1.03567">
        <ele>205.86</ele>
        <time>2020-12-25T09:18:32Z</time>
      </trkpt>
      <trkpt lat="44.41777" lon="1.03575">
        <ele>208.26</ele>
        <time>2020-12-25T09:19:02Z</time>
      </trkpt>
      <trkpt lat="44.41803" lon="1.03612">
        <ele>214.03</ele>
        <time>2020-12-25T09:19:32Z</time>
      </trkpt>
      <trkpt lat="44.41819" lon="1.03657">
        <ele>218.84</ele>
        <time>2020-12-25T09:20:02Z</time>
      </trkpt>
      <trkpt lat="44.4184" lon="1.03698">
        <ele>222.68</ele>
        <time>2020-12-25T09:20:32Z</time>
      </trkpt>
      <trkpt lat="44.41873" lon="1.03726">
        <ele>224.61</ele>
        <time>2020-12-25T09:21:02Z</time>
      </trkpt>
      <trkpt lat="44.41894" lon="1.03773">
        <ele>228.45</ele>
        <time>2020-12-25T09:21:32Z</time>
      </trkpt>
      <trkpt lat="44.41923" lon="1.03802">
        <ele>232.78</ele>
        <time>2020-12-25T09:22:02Z</time>
      </trkpt>
      <trkpt lat="44.41951" lon="1.03833">
        <ele>237.1</ele>
        <time>2020-12-25T09:22:32Z</time>
      </trkpt>
      <trkpt lat="44.41988" lon="1.03839">
        <ele>238.54</ele>
        <time>2020-12-25T09:23:02Z</time>
      </trkpt>
      <trkpt lat="44.4202" lon="1.03799">
        <ele>239.51</ele>
        <time>2020-12-25T09:23:32Z</time>
      </trkpt>
      <trkpt lat="44.42049" lon="1.03757">
        <ele>241.43</ele>
        <time>2020-12-25T09:24:02Z</time>
      </trkpt>
      <trkpt lat="44.42081" lon="1.0372">
        <ele>242.87</ele>
        <time>2020-12-25T09:24:32Z</time>
      </trkpt>
      <trkpt lat="44.42115" lon="1.03686">
        <ele>243.83</ele>
        <time>2020-12-25T09:25:02Z</time>
      </trkpt>
      <trkpt lat="44.4215" lon="1.03643">
        <ele>244.79</ele>
        <time>2020-12-25T09:25:32Z</time>
      </trkpt>
      <trkpt lat="44.42188" lon="1.03598">
        <ele>243.83</ele>
        <time>2020-12-25T09:26:02Z</time>
      </trkpt>
      <trkpt lat="44.42236" lon="1.03581">
        <ele>242.39</ele>
        <time>2020-12-25T09:26:32Z</time>
      </trkpt>
      <trkpt lat="44.42284" lon="1.0358">
        <ele>240.95</ele>
        <time>2020-12-25T09:27:02Z</time>
      </trkpt>
      <trkpt lat="44.42332" lon="1.03581">
        <ele>240.47</ele>
        <time>2020-12-25T09:27:32Z</time>
      </trkpt>
      <trkpt lat="44.42379" lon="1.03581">
        <ele>241.43</ele>
        <time>2020-12-25T09:28:02Z</time>
      </trkpt>
      <trkpt lat="44.42421" lon="1.0356">
        <ele>241.91</ele>
        <time>2020-12-25T09:28:32Z</time>
      </trkpt>
      <trkpt lat="44.42459" lon="1.03551">
        <ele>240.47</ele>
        <time>2020-12-25T09:29:02Z</time>
      </trkpt>
      <trkpt lat="44.42498" lon="1.03579">
        <ele>241.91</ele>
        <time>2020-12-25T09:29:32Z</time>
      </trkpt>
      <trkpt lat="44.42537" lon="1.03579">
        <ele>244.31</ele>
        <time>2020-12-25T09:30:02Z</time>
      </trkpt>
      <trkpt lat="44.42582" lon="1.03591">
        <ele>244.79</ele>
        <time>2020-12-25T09:30:32Z</time>
      </trkpt>
      <trkpt lat="44.4262" lon="1.03609">
        <ele>245.27</ele>
        <time>2020-12-25T09:31:02Z</time>
      </trkpt>
      <trkpt lat="44.42664" lon="1.03636">
        <ele>243.35</ele>
        <time>2020-12-25T09:31:32Z</time>
      </trkpt>
      <trkpt lat="44.42708" lon="1.03642">
        <ele>243.35</ele>
        <time>2020-12-25T09:32:02Z</time>
      </trkpt>
      <trkpt lat="44.42752" lon="1.03654">
        <ele>245.27</ele>
        <time>2020-12-25T09:32:32Z</time>
      </trkpt>
      <trkpt lat="44.42792" lon="1.03675">
        <ele>246.23</ele>
        <time>2020-12-25T09:33:02Z</time>
      </trkpt>
      <trkpt lat="44.42792" lon="1.03727">
        <ele>248.16</ele>
        <time>2020-12-25T09:33:32Z</time>
      </trkpt>
      <trkpt lat="44.42778" lon="1.03782">
        <ele>248.64</ele>
        <time>2020-12-25T09:34:02Z</time>
      </trkpt>
      <trkpt lat="44.42763" lon="1.03837">
        <ele>248.64</ele>
        <time>2020-12-25T09:34:32Z</time>
      </trkpt>
      <trkpt lat="44.42751" lon="1.03894">
        <ele>248.64</ele>
        <time>2020-12-25T09:35:02Z</time>
      </trkpt>
      <trkpt lat="44.4274" lon="1.03956">
        <ele>250.08</ele>
        <time>2020-12-25T09:35:32Z</time>
      </trkpt>
      <trkpt lat="44.42728" lon="1.04021">
        <ele>252</ele>
        <time>2020-12-25T09:36:02Z</time>
      </trkpt>
      <trkpt lat="44.42711" lon="1.04082">
        <ele>254.89</ele>
        <time>2020-12-25T09:36:32Z</time>
      </trkpt>
      <trkpt lat="44.42696" lon="1.04143">
        <ele>258.25</ele>
        <time>2020-12-25T09:37:02Z</time>
      </trkpt>
      <trkpt lat="44.42683" lon="1.04199">
        <ele>261.14</ele>
        <time>2020-12-25T09:37:32Z</time>
      </trkpt>
      <trkpt lat="44.42691" lon="1.04254">
        <ele>262.1</ele>
        <time>2020-12-25T09:38:02Z</time>
      </trkpt>
      <trkpt lat="44.4272" lon="1.04302">
        <ele>259.69</ele>
        <time>2020-12-25T09:38:32Z</time>
      </trkpt>
      <trkpt lat="44.42739" lon="1.04364">
        <ele>251.52</ele>
        <time>2020-12-25T09:39:02Z</time>
      </trkpt>
      <trkpt lat="44.42752" lon="1.04425">
        <ele>248.16</ele>
        <time>2020-12-25T09:39:32Z</time>
      </trkpt>
      <trkpt lat="44.42767" lon="1.04484">
        <ele>247.2</ele>
        <time>2020-12-25T09:40:02Z</time>
      </trkpt>
      <trkpt lat="44.42785" lon="1.04544">
        <ele>247.2</ele>
        <time>2020-12-25T09:40:32Z</time>
      </trkpt>
      <trkpt lat="44.42821" lon="1.04562">
        <ele>250.08</ele>
        <time>2020-12-25T09:41:02Z</time>
      </trkpt>
      <trkpt lat="44.42868" lon="1.04556">
        <ele>251.04</ele>
        <time>2020-12-25T09:41:32Z</time>
      </trkpt>
      <trkpt lat="44.42914" lon="1.0454">
        <ele>252</ele>
        <time>2020-12-25T09:42:02Z</time>
      </trkpt>
      <trkpt lat="44.42961" lon="1.04532">
        <ele>252.48</ele>
        <time>2020-12-25T09:42:32Z</time>
      </trkpt>
      <trkpt lat="44.43006" lon="1.04552">
        <ele>250.08</ele>
        <time>2020-12-25T09:43:02Z</time>
      </trkpt>
      <trkpt lat="44.43037" lon="1.04602">
        <ele>245.27</ele>
        <time>2020-12-25T09:43:32Z</time>
      </trkpt>
      <trkpt lat="44.43065" lon="1.04562">
        <ele>242.39</ele>
        <time>2020-12-25T09:44:02Z</time>
      </trkpt>
      <trkpt lat="44.43079" lon="1.04502">
        <ele>240.47</ele>
        <time>2020-12-25T09:44:32Z</time>
      </trkpt>
      <trkpt lat="44.43098" lon="1.04442">
        <ele>239.99</ele>
        <time>2020-12-25T09:45:02Z</time>
      </trkpt>
      <trkpt lat="44.43125" lon="1.04389">
        <ele>239.99</ele>
        <time>2020-12-25T09:45:32Z</time>
      </trkpt>
      <trkpt lat="44.43159" lon="1.04346">
        <ele>239.02</ele>
        <time>2020-12-25T09:46:02Z</time>
      </trkpt>
      <trkpt lat="44.43199" lon="1.04315">
        <ele>235.66</ele>
        <time>2020-12-25T09:46:32Z</time>
      </trkpt>
      <trkpt lat="44.43242" lon="1.04282">
        <ele>234.22</ele>
        <time>2020-12-25T09:47:02Z</time>
      </trkpt>
      <trkpt lat="44.43284" lon="1.04244">
        <ele>232.3</ele>
        <time>2020-12-25T09:47:32Z</time>
      </trkpt>
      <trkpt lat="44.43307" lon="1.04192">
        <ele>228.45</ele>
        <time>2020-12-25T09:48:02Z</time>
      </trkpt>
      <trkpt lat="44.43336" lon="1.04149">
        <ele>222.68</ele>
        <time>2020-12-25T09:48:32Z</time>
      </trkpt>
      <trkpt lat="44.43377" lon="1.0412">
        <ele>221.24</ele>
        <time>2020-12-25T09:49:02Z</time>
      </trkpt>
      <trkpt lat="44.43409" lon="1.04085">
        <ele>223.64</ele>
        <time>2020-12-25T09:49:32Z</time>
      </trkpt>
      <trkpt lat="44.43383" lon="1.04034">
        <ele>221.24</ele>
        <time>2020-12-25T09:50:02Z</time>
      </trkpt>
      <trkpt lat="44.43365" lon="1.03974">
        <ele>221.24</ele>
        <time>2020-12-25T09:50:32Z</time>
      </trkpt>
      <trkpt lat="44.43352" lon="1.03915">
        <ele>224.12</ele>
        <time>2020-12-25T09:51:02Z</time>
      </trkpt>
      <trkpt lat="44.43347" lon="1.03887">
        <ele>225.09</ele>
        <time>2020-12-25T09:51:32Z</time>
      </trkpt>
      <trkpt lat="44.43353" lon="1.03881">
        <ele>225.57</ele>
        <time>2020-12-25T09:52:02Z</time>
      </trkpt>
      <trkpt lat="44.43396" lon="1.03863">
        <ele>225.57</ele>
        <time>2020-12-25T09:52:32Z</time>
      </trkpt>
      <trkpt lat="44.43431" lon="1.03881">
        <ele>221.72</ele>
        <time>2020-12-25T09:53:02Z</time>
      </trkpt>
      <trkpt lat="44.43474" lon="1.03857">
        <ele>218.84</ele>
        <time>2020-12-25T09:53:32Z</time>
      </trkpt>
      <trkpt lat="44.43518" lon="1.03831">
        <ele>217.4</ele>
        <time>2020-12-25T09:54:02Z</time>
      </trkpt>
      <trkpt lat="44.43561" lon="1.03807">
        <ele>214.99</ele>
        <time>2020-12-25T09:54:32Z</time>
      </trkpt>
      <trkpt lat="44.4359" lon="1.03752">
        <ele>214.51</ele>
        <time>2020-12-25T09:55:02Z</time>
      </trkpt>
      <trkpt lat="44.43612" lon="1.03698">
        <ele>214.03</ele>
        <time>2020-12-25T09:55:32Z</time>
      </trkpt>
      <trkpt lat="44.43606" lon="1.03642">
        <ele>216.91</ele>
        <time>2020-12-25T09:56:02Z</time>
      </trkpt>
      <trkpt lat="44.43625" lon="1.03592">
        <ele>217.88</ele>
        <time>2020-12-25T09:56:32Z</time>
      </trkpt>
      <trkpt lat="44.43666" lon="1.03563">
        <ele>217.88</ele>
        <time>2020-12-25T09:57:02Z</time>
      </trkpt>
      <trkpt lat="44.43707" lon="1.03533">
        <ele>215.95</ele>
        <time>2020-12-25T09:57:32Z</time>
      </trkpt>
      <trkpt lat="44.43745" lon="1.03486">
        <ele>213.55</ele>
        <time>2020-12-25T09:58:02Z</time>
      </trkpt>
      <trkpt lat="44.43779" lon="1.03437">
        <ele>210.19</ele>
        <time>2020-12-25T09:58:32Z</time>
      </trkpt>
      <trkpt lat="44.4381" lon="1.03378">
        <ele>203.94</ele>
        <time>2020-12-25T09:59:02Z</time>
      </trkpt>
      <trkpt lat="44.43842" lon="1.03328">
        <ele>202.01</ele>
        <time>2020-12-25T09:59:32Z</time>
      </trkpt>
      <trkpt lat="44.43875" lon="1.03293">
        <ele>203.46</ele>
        <time>2020-12-25T10:00:02Z</time>
      </trkpt>
      <trkpt lat="44.4391" lon="1.03264">
        <ele>204.9</ele>
        <time>2020-12-25T10:00:32Z</time>
      </trkpt>
      <trkpt lat="44.4395" lon="1.03234">
        <ele>206.82</ele>
        <time>2020-12-25T10:01:02Z</time>
      </trkpt>
      <trkpt lat="44.4398" lon="1.03197">
        <ele>207.78</ele>
        <time>2020-12-25T10:01:32Z</time>
      </trkpt>
      <trkpt lat="44.4395" lon="1.03176">
        <ele>211.63</ele>
        <time>2020-12-25T10:02:02Z</time>
      </trkpt>
      <trkpt lat="44.43911" lon="1.03152">
        <ele>214.99</ele>
        <time>2020-12-25T10:02:32Z</time>
      </trkpt>
      <trkpt lat="44.43874" lon="1.0313">
        <ele>216.91</ele>
        <time>2020-12-25T10:03:02Z</time>
      </trkpt>
      <trkpt lat="44.43832" lon="1.03104">
        <ele>218.84</ele>
        <time>2020-12-25T10:03:32Z</time>
      </trkpt>
      <trkpt lat="44.43796" lon="1.03079">
        <ele>220.28</ele>
        <time>2020-12-25T10:04:02Z</time>
      </trkpt>
      <trkpt lat="44.4376" lon="1.03047">
        <ele>224.61</ele>
        <time>2020-12-25T10:04:32Z</time>
      </trkpt>
      <trkpt lat="44.43722" lon="1.0302">
        <ele>227.01</ele>
        <time>2020-12-25T10:05:02Z</time>
      </trkpt>
      <trkpt lat="44.43683" lon="1.02993">
        <ele>228.45</ele>
        <time>2020-12-25T10:05:32Z</time>
      </trkpt>
      <trkpt lat="44.43642" lon="1.02969">
        <ele>228.93</ele>
        <time>2020-12-25T10:06:02Z</time>
      </trkpt>
      <trkpt lat="44.43599" lon="1.02958">
        <ele>228.93</ele>
        <time>2020-12-25T10:06:32Z</time>
      </trkpt>
      <trkpt lat="44.43556" lon="1.02942">
        <ele>228.93</ele>
        <time>2020-12-25T10:07:02Z</time>
      </trkpt>
      <trkpt lat="44.43516" lon="1.02918">
        <ele>228.93</ele>
        <time>2020-12-25T10:07:32Z</time>
      </trkpt>
      <trkpt lat="44.43481" lon="1.02883">
        <ele>229.41</ele>
        <time>2020-12-25T10:08:02Z</time>
      </trkpt>
      <trkpt lat="44.43448" lon="1.02843">
        <ele>229.41</ele>
        <time>2020-12-25T10:08:32Z</time>
      </trkpt>
      <trkpt lat="44.43413" lon="1.02802">
        <ele>229.41</ele>
        <time>2020-12-25T10:09:02Z</time>
      </trkpt>
      <trkpt lat="44.43375" lon="1.02768">
        <ele>227.49</ele>
        <time>2020-12-25T10:09:32Z</time>
      </trkpt>
      <trkpt lat="44.43347" lon="1.02722">
        <ele>227.49</ele>
        <time>2020-12-25T10:10:02Z</time>
      </trkpt>
      <trkpt lat="44.43327" lon="1.02674">
        <ele>228.93</ele>
        <time>2020-12-25T10:10:32Z</time>
      </trkpt>
      <trkpt lat="44.43367" lon="1.02638">
        <ele>229.41</ele>
        <time>2020-12-25T10:11:02Z</time>
      </trkpt>
      <trkpt lat="44.43406" lon="1.02605">
        <ele>230.37</ele>
        <time>2020-12-25T10:11:32Z</time>
      </trkpt>
      <trkpt lat="44.43441" lon="1.02563">
        <ele>230.85</ele>
        <time>2020-12-25T10:12:02Z</time>
      </trkpt>
      <trkpt lat="44.43484" lon="1.02537">
        <ele>231.81</ele>
        <time>2020-12-25T10:12:32Z</time>
      </trkpt>
      <trkpt lat="44.43524" lon="1.02505">
        <ele>232.3</ele>
        <time>2020-12-25T10:13:02Z</time>
      </trkpt>
      <trkpt lat="44.43553" lon="1.02454">
        <ele>232.3</ele>
        <time>2020-12-25T10:13:32Z</time>
      </trkpt>
      <trkpt lat="44.43573" lon="1.02403">
        <ele>230.37</ele>
        <time>2020-12-25T10:14:02Z</time>
      </trkpt>
      <trkpt lat="44.43534" lon="1.02377">
        <ele>228.93</ele>
        <time>2020-12-25T10:14:32Z</time>
      </trkpt>
      <trkpt lat="44.43497" lon="1.02343">
        <ele>225.57</ele>
        <time>2020-12-25T10:15:02Z</time>
      </trkpt>
      <trkpt lat="44.4346" lon="1.02309">
        <ele>220.28</ele>
        <time>2020-12-25T10:15:32Z</time>
      </trkpt>
      <trkpt lat="44.43418" lon="1.02283">
        <ele>217.4</ele>
        <time>2020-12-25T10:16:02Z</time>
      </trkpt>
      <trkpt lat="44.43383" lon="1.02261">
        <ele>219.8</ele>
        <time>2020-12-25T10:16:32Z</time>
      </trkpt>
      <trkpt lat="44.43347" lon="1.02231">
        <ele>216.43</ele>
        <time>2020-12-25T10:17:02Z</time>
      </trkpt>
      <trkpt lat="44.43303" lon="1.02208">
        <ele>213.55</ele>
        <time>2020-12-25T10:17:32Z</time>
      </trkpt>
      <trkpt lat="44.43257" lon="1.02191">
        <ele>208.74</ele>
        <time>2020-12-25T10:18:02Z</time>
      </trkpt>
      <trkpt lat="44.43226" lon="1.02176">
        <ele>206.82</ele>
        <time>2020-12-25T10:18:32Z</time>
      </trkpt>
      <trkpt lat="44.43191" lon="1.02145">
        <ele>205.86</ele>
        <time>2020-12-25T10:19:02Z</time>
      </trkpt>
      <trkpt lat="44.43178" lon="1.02084">
        <ele>203.46</ele>
        <time>2020-12-25T10:19:32Z</time>
      </trkpt>
      <trkpt lat="44.43173" lon="1.02028">
        <ele>203.46</ele>
        <time>2020-12-25T10:20:02Z</time>
      </trkpt>
      <trkpt lat="44.43172" lon="1.01975">
        <ele>206.34</ele>
        <time>2020-12-25T10:20:32Z</time>
      </trkpt>
      <trkpt lat="44.43141" lon="1.01938">
        <ele>208.26</ele>
        <time>2020-12-25T10:21:02Z</time>
      </trkpt>
      <trkpt lat="44.43125" lon="1.0191">
        <ele>209.22</ele>
        <time>2020-12-25T10:21:32Z</time>
      </trkpt>
      <trkpt lat="44.43099" lon="1.01889">
        <ele>209.7</ele>
        <time>2020-12-25T10:22:02Z</time>
      </trkpt>
      <trkpt lat="44.43066" lon="1.01847">
        <ele>209.7</ele>
        <time>2020-12-25T10:22:32Z</time>
      </trkpt>
      <trkpt lat="44.43034" lon="1.01806">
        <ele>210.67</ele>
        <time>2020-12-25T10:23:02Z</time>
      </trkpt>
      <trkpt lat="44.43009" lon="1.01757">
        <ele>212.11</ele>
        <time>2020-12-25T10:23:32Z</time>
      </trkpt>
      <trkpt lat="44.42982" lon="1.01707">
        <ele>213.07</ele>
        <time>2020-12-25T10:24:02Z</time>
      </trkpt>
      <trkpt lat="44.42954" lon="1.01661">
        <ele>215.47</ele>
        <time>2020-12-25T10:24:32Z</time>
      </trkpt>
      <trkpt lat="44.42922" lon="1.0162">
        <ele>219.32</ele>
        <time>2020-12-25T10:25:02Z</time>
      </trkpt>
      <trkpt lat="44.42909" lon="1.01564">
        <ele>222.2</ele>
        <time>2020-12-25T10:25:32Z</time>
      </trkpt>
      <trkpt lat="44.42928" lon="1.01508">
        <ele>223.64</ele>
        <time>2020-12-25T10:26:02Z</time>
      </trkpt>
      <trkpt lat="44.42955" lon="1.01472">
        <ele>223.64</ele>
        <time>2020-12-25T10:26:32Z</time>
      </trkpt>
    </trkseg>
  </trk>
</gpx>